Check out our new PWSWeather beta!
PWSweather.com
Personal Weather Stations
Station Observations
SD92115WX
El Cerrito Stoneybluff, San Diego, CA 92115

El Cerrito StoneybluffSan Diego, CA 92115

Lat: 32.754096, Lon: -117.066705

Elevation: 420

Station Type: Davis Vantage Vue

http://stoneybluff.com

High Low Average
Temperature 63.7°F17.6°C 50.2°F10.1°C 57.1°F13.9°C
Dew Point 53.6°F12.0°C 45.9°F7.7°C 49.4°F9.7°C
Winds 9.6 mph 15.4 kmh Calm Calm 2.0 mph SW3.2 kmh SW
Wind Gusts 19.0 mph30.6 kmh -- 6.0 mph9.7 kmh
Humidity 95% 54% 77%
Pressure 30.01 in1016.3 mb 29.92 in1013.2 mb -
Precipitation 0.02 in0.5 mm - -
Hour Temp Dew Point Humidity Winds Wind Gusts Pressure Precip Precip Rate Daily Precip Total
12:04 AM 55.2°F12.9°C 53.6°F12.0°C 94% Calm Calm -- 29.92 in1013.2 mb 0.00 in0.0 mm 0.00 in0.0 mm 0.00 in0.0 mm
12:09 AM 55.2°F12.9°C 53.6°F12.0°C 94% Calm Calm -- 29.93 in1013.5 mb 0.00 in0.0 mm 0.00 in0.0 mm 0.00 in0.0 mm
12:14 AM 55.0°F12.8°C 53.4°F11.9°C 94% Calm Calm -- 29.93 in1013.5 mb 0.00 in0.0 mm 0.00 in0.0 mm 0.00 in0.0 mm
12:19 AM 54.9°F12.7°C 53.2°F11.8°C 94% Calm Calm 2.0 mph3.2 kmh 29.92 in1013.2 mb 0.00 in0.0 mm 0.00 in0.0 mm 0.00 in0.0 mm
12:24 AM 54.7°F12.6°C 53.1°F11.7°C 94% 0.2 mph W0.3 kmh W 2.0 mph3.2 kmh 29.92 in1013.2 mb 0.01 in0.3 mm 0.12 in3.0 mm 0.01 in0.3 mm
12:29 AM 54.7°F12.6°C 53.1°F11.7°C 94% 0.4 mph WNW0.6 kmh WNW 2.0 mph3.2 kmh 29.93 in1013.5 mb 0.01 in0.3 mm 0.00 in0.0 mm 0.01 in0.3 mm
12:34 AM 54.7°F12.6°C 53.1°F11.7°C 94% 1.1 mph W1.8 kmh W 3.1 mph5.0 kmh 29.93 in1013.5 mb 0.01 in0.3 mm 0.00 in0.0 mm 0.01 in0.3 mm
12:39 AM 54.5°F12.5°C 52.5°F11.4°C 93% 5.1 mph WNW8.2 kmh WNW 9.6 mph15.4 kmh 29.93 in1013.5 mb 0.01 in0.3 mm 0.00 in0.0 mm 0.01 in0.3 mm
12:44 AM 54.5°F12.5°C 52.5°F11.4°C 93% 2.2 mph NE3.5 kmh NE 9.6 mph15.4 kmh 29.93 in1013.5 mb 0.01 in0.3 mm 0.00 in0.0 mm 0.01 in0.3 mm
12:49 AM 54.1°F12.3°C 51.8°F11.0°C 92% 3.6 mph NW5.8 kmh NW 10.5 mph16.9 kmh 29.93 in1013.5 mb 0.01 in0.3 mm 0.00 in0.0 mm 0.01 in0.3 mm
12:54 AM 54.0°F12.2°C 52.0°F11.1°C 93% 1.1 mph WNW1.8 kmh WNW 4.3 mph6.9 kmh 29.93 in1013.5 mb 0.01 in0.3 mm 0.00 in0.0 mm 0.01 in0.3 mm
12:59 AM 53.8°F12.1°C 51.8°F11.0°C 93% 0.2 mph W0.3 kmh W 3.1 mph5.0 kmh 29.93 in1013.5 mb 0.01 in0.3 mm 0.00 in0.0 mm 0.01 in0.3 mm
01:04 AM 53.6°F12.0°C 51.6°F10.9°C 93% Calm Calm 2.0 mph3.2 kmh 29.93 in1013.5 mb 0.01 in0.3 mm 0.00 in0.0 mm 0.01 in0.3 mm
01:09 AM 53.6°F12.0°C 51.6°F10.9°C 93% 0.2 mph W0.3 kmh W 1.1 mph1.8 kmh 29.93 in1013.5 mb 0.01 in0.3 mm 0.00 in0.0 mm 0.01 in0.3 mm
01:14 AM 53.6°F12.0°C 51.6°F10.9°C 93% Calm Calm 1.1 mph1.8 kmh 29.93 in1013.5 mb 0.01 in0.3 mm 0.00 in0.0 mm 0.01 in0.3 mm
01:19 AM 53.6°F12.0°C 51.6°F10.9°C 93% Calm Calm 1.1 mph1.8 kmh 29.92 in1013.2 mb 0.01 in0.3 mm 0.00 in0.0 mm 0.01 in0.3 mm
01:24 AM 53.6°F12.0°C 51.6°F10.9°C 93% 0.7 mph W1.1 kmh W 1.1 mph1.8 kmh 29.92 in1013.2 mb 0.00 in0.0 mm 0.00 in0.0 mm 0.01 in0.3 mm
01:29 AM 53.8°F12.1°C 51.8°F11.0°C 93% 0.7 mph WNW1.1 kmh WNW 3.1 mph5.0 kmh 29.92 in1013.2 mb 0.00 in0.0 mm 0.00 in0.0 mm 0.01 in0.3 mm
01:34 AM 53.8°F12.1°C 51.8°F11.0°C 93% 1.1 mph W1.8 kmh W 3.1 mph5.0 kmh 29.93 in1013.5 mb 0.00 in0.0 mm 0.00 in0.0 mm 0.01 in0.3 mm
01:39 AM 53.8°F12.1°C 51.8°F11.0°C 93% 1.6 mph W2.6 kmh W 4.3 mph6.9 kmh 29.93 in1013.5 mb 0.00 in0.0 mm 0.00 in0.0 mm 0.01 in0.3 mm
01:44 AM 54.0°F12.2°C 52.0°F11.1°C 93% 1.6 mph NW2.6 kmh NW 3.1 mph5.0 kmh 29.93 in1013.5 mb 0.00 in0.0 mm 0.00 in0.0 mm 0.01 in0.3 mm
01:49 AM 54.0°F12.2°C 52.0°F11.1°C 93% 1.1 mph WNW1.8 kmh WNW 5.4 mph8.7 kmh 29.93 in1013.5 mb 0.00 in0.0 mm 0.00 in0.0 mm 0.01 in0.3 mm
01:54 AM 54.0°F12.2°C 51.6°F10.9°C 92% 2.0 mph WNW3.2 kmh WNW 5.4 mph8.7 kmh 29.93 in1013.5 mb 0.00 in0.0 mm 0.00 in0.0 mm 0.01 in0.3 mm
01:59 AM 54.0°F12.2°C 51.6°F10.9°C 92% 2.9 mph NW4.7 kmh NW 6.3 mph10.1 kmh 29.93 in1013.5 mb 0.00 in0.0 mm 0.00 in0.0 mm 0.01 in0.3 mm
02:04 AM 54.0°F12.2°C 51.6°F10.9°C 92% 2.0 mph NNW3.2 kmh NNW 5.4 mph8.7 kmh 29.93 in1013.5 mb 0.00 in0.0 mm 0.00 in0.0 mm 0.01 in0.3 mm
02:09 AM 53.8°F12.1°C 51.3°F10.7°C 91% 4.0 mph NW6.4 kmh NW 8.5 mph13.7 kmh 29.93 in1013.5 mb 0.00 in0.0 mm 0.00 in0.0 mm 0.01 in0.3 mm
02:14 AM 53.6°F12.0°C 50.7°F10.4°C 90% 3.6 mph NNW5.8 kmh NNW 7.4 mph11.9 kmh 29.93 in1013.5 mb 0.00 in0.0 mm 0.00 in0.0 mm 0.01 in0.3 mm
02:19 AM 53.4°F11.9°C 50.9°F10.5°C 91% 0.4 mph NW0.6 kmh NW 5.4 mph8.7 kmh 29.93 in1013.5 mb 0.00 in0.0 mm 0.00 in0.0 mm 0.01 in0.3 mm
02:24 AM 53.2°F11.8°C 50.7°F10.4°C 91% 1.3 mph NNW2.1 kmh NNW 3.1 mph5.0 kmh 29.93 in1013.5 mb 0.00 in0.0 mm 0.00 in0.0 mm 0.01 in0.3 mm
02:29 AM 53.1°F11.7°C 50.2°F10.1°C 90% 1.1 mph NW1.8 kmh NW 4.3 mph6.9 kmh 29.93 in1013.5 mb 0.00 in0.0 mm 0.00 in0.0 mm 0.01 in0.3 mm
02:34 AM 52.9°F11.6°C 50.4°F10.2°C 91% 0.2 mph NW0.3 kmh NW 1.1 mph1.8 kmh 29.92 in1013.2 mb 0.00 in0.0 mm 0.00 in0.0 mm 0.01 in0.3 mm
02:39 AM 52.5°F11.4°C 50.0°F10.0°C 91% Calm Calm 1.1 mph1.8 kmh 29.92 in1013.2 mb 0.00 in0.0 mm 0.00 in0.0 mm 0.01 in0.3 mm
02:44 AM 52.3°F11.3°C 49.8°F9.9°C 91% Calm Calm -- 29.92 in1013.2 mb 0.00 in0.0 mm 0.00 in0.0 mm 0.01 in0.3 mm
02:49 AM 52.2°F11.2°C 49.6°F9.8°C 91% Calm Calm -- 29.92 in1013.2 mb 0.00 in0.0 mm 0.00 in0.0 mm 0.01 in0.3 mm
02:54 AM 52.2°F11.2°C 49.6°F9.8°C 91% Calm Calm -- 29.92 in1013.2 mb 0.00 in0.0 mm 0.00 in0.0 mm 0.01 in0.3 mm
02:59 AM 52.2°F11.2°C 49.8°F9.9°C 92% Calm Calm -- 29.93 in1013.5 mb 0.00 in0.0 mm 0.00 in0.0 mm 0.01 in0.3 mm
03:04 AM 52.2°F11.2°C 49.8°F9.9°C 92% Calm Calm -- 29.93 in1013.5 mb 0.00 in0.0 mm 0.00 in0.0 mm 0.01 in0.3 mm
03:09 AM 52.2°F11.2°C 49.8°F9.9°C 92% Calm Calm -- 29.93 in1013.5 mb 0.00 in0.0 mm 0.00 in0.0 mm 0.01 in0.3 mm
03:14 AM 52.2°F11.2°C 49.8°F9.9°C 92% Calm Calm -- 29.93 in1013.5 mb 0.00 in0.0 mm 0.00 in0.0 mm 0.01 in0.3 mm
03:19 AM 52.2°F11.2°C 49.8°F9.9°C 92% Calm Calm -- 29.93 in1013.5 mb 0.00 in0.0 mm 0.00 in0.0 mm 0.01 in0.3 mm
03:24 AM 52.0°F11.1°C 49.6°F9.8°C 92% Calm Calm -- 29.93 in1013.5 mb 0.00 in0.0 mm 0.00 in0.0 mm 0.01 in0.3 mm
03:29 AM 52.0°F11.1°C 49.6°F9.8°C 92% Calm Calm -- 29.93 in1013.5 mb 0.00 in0.0 mm 0.00 in0.0 mm 0.01 in0.3 mm
03:34 AM 51.8°F11.0°C 49.6°F9.8°C 92% Calm Calm -- 29.93 in1013.5 mb 0.00 in0.0 mm 0.00 in0.0 mm 0.01 in0.3 mm
03:39 AM 51.4°F10.8°C 49.3°F9.6°C 92% Calm Calm -- 29.93 in1013.5 mb 0.00 in0.0 mm 0.00 in0.0 mm 0.01 in0.3 mm
03:44 AM 51.3°F10.7°C 49.1°F9.5°C 92% Calm Calm -- 29.94 in1013.9 mb 0.00 in0.0 mm 0.00 in0.0 mm 0.01 in0.3 mm
03:49 AM 51.3°F10.7°C 49.1°F9.5°C 92% Calm Calm -- 29.93 in1013.5 mb 0.00 in0.0 mm 0.00 in0.0 mm 0.01 in0.3 mm
03:54 AM 51.1°F10.6°C 49.1°F9.5°C 93% Calm Calm -- 29.93 in1013.5 mb 0.00 in0.0 mm 0.00 in0.0 mm 0.01 in0.3 mm
03:59 AM 51.1°F10.6°C 49.1°F9.5°C 93% Calm Calm -- 29.93 in1013.5 mb 0.00 in0.0 mm 0.00 in0.0 mm 0.01 in0.3 mm
04:04 AM 51.1°F10.6°C 49.1°F9.5°C 93% Calm Calm -- 29.93 in1013.5 mb 0.00 in0.0 mm 0.00 in0.0 mm 0.01 in0.3 mm
04:09 AM 50.9°F10.5°C 48.9°F9.4°C 93% Calm Calm -- 29.93 in1013.5 mb 0.00 in0.0 mm 0.00 in0.0 mm 0.01 in0.3 mm
04:14 AM 50.9°F10.5°C 48.9°F9.4°C 93% Calm Calm -- 29.93 in1013.5 mb 0.00 in0.0 mm 0.00 in0.0 mm 0.01 in0.3 mm
04:19 AM 50.7°F10.4°C 48.7°F9.3°C 93% Calm Calm -- 29.93 in1013.5 mb 0.00 in0.0 mm 0.00 in0.0 mm 0.01 in0.3 mm
04:24 AM 50.7°F10.4°C 48.7°F9.3°C 93% Calm Calm -- 29.93 in1013.5 mb 0.00 in0.0 mm 0.00 in0.0 mm 0.01 in0.3 mm
04:29 AM 50.5°F10.3°C 48.6°F9.2°C 93% Calm Calm -- 29.93 in1013.5 mb 0.00 in0.0 mm 0.00 in0.0 mm 0.01 in0.3 mm
04:34 AM 50.5°F10.3°C 48.6°F9.2°C 93% Calm Calm -- 29.94 in1013.9 mb 0.00 in0.0 mm 0.00 in0.0 mm 0.01 in0.3 mm
04:39 AM 50.5°F10.3°C 48.9°F9.4°C 94% Calm Calm -- 29.93 in1013.5 mb 0.00 in0.0 mm 0.00 in0.0 mm 0.01 in0.3 mm
04:44 AM 50.5°F10.3°C 48.9°F9.4°C 94% Calm Calm -- 29.94 in1013.9 mb 0.00 in0.0 mm 0.00 in0.0 mm 0.01 in0.3 mm
04:49 AM 50.4°F10.2°C 48.4°F9.1°C 93% Calm Calm -- 29.94 in1013.9 mb 0.00 in0.0 mm 0.00 in0.0 mm 0.01 in0.3 mm
04:54 AM 50.5°F10.3°C 48.9°F9.4°C 94% Calm Calm -- 29.94 in1013.9 mb 0.00 in0.0 mm 0.00 in0.0 mm 0.01 in0.3 mm
04:59 AM 50.5°F10.3°C 48.9°F9.4°C 94% Calm Calm -- 29.94 in1013.9 mb 0.00 in0.0 mm 0.00 in0.0 mm 0.01 in0.3 mm
05:04 AM 50.5°F10.3°C 48.9°F9.4°C 94% Calm Calm -- 29.95 in1014.2 mb 0.00 in0.0 mm 0.00 in0.0 mm 0.01 in0.3 mm
05:09 AM 50.4°F10.2°C 48.7°F9.3°C 94% Calm Calm -- 29.94 in1013.9 mb 0.00 in0.0 mm 0.00 in0.0 mm 0.01 in0.3 mm
05:14 AM 50.2°F10.1°C 48.6°F9.2°C 94% Calm Calm -- 29.95 in1014.2 mb 0.00 in0.0 mm 0.00 in0.0 mm 0.01 in0.3 mm
05:19 AM 50.4°F10.2°C 48.7°F9.3°C 94% Calm Calm -- 29.95 in1014.2 mb 0.00 in0.0 mm 0.00 in0.0 mm 0.01 in0.3 mm
05:24 AM 50.4°F10.2°C 48.7°F9.3°C 94% Calm Calm -- 29.95 in1014.2 mb 0.00 in0.0 mm 0.00 in0.0 mm 0.01 in0.3 mm
05:29 AM 50.5°F10.3°C 48.9°F9.4°C 94% Calm Calm 1.1 mph1.8 kmh 29.95 in1014.2 mb 0.00 in0.0 mm 0.00 in0.0 mm 0.01 in0.3 mm
05:34 AM 50.7°F10.4°C 49.1°F9.5°C 94% Calm Calm 1.1 mph1.8 kmh 29.96 in1014.6 mb 0.00 in0.0 mm 0.00 in0.0 mm 0.01 in0.3 mm
05:39 AM 51.1°F10.6°C 49.5°F9.7°C 94% Calm Calm -- 29.96 in1014.6 mb 0.00 in0.0 mm 0.00 in0.0 mm 0.01 in0.3 mm
05:44 AM 51.4°F10.8°C 50.0°F10.0°C 95% Calm Calm -- 29.96 in1014.6 mb 0.00 in0.0 mm 0.00 in0.0 mm 0.01 in0.3 mm
05:49 AM 52.0°F11.1°C 50.4°F10.2°C 94% Calm Calm -- 29.96 in1014.6 mb 0.00 in0.0 mm 0.00 in0.0 mm 0.01 in0.3 mm
05:54 AM 52.3°F11.3°C 50.7°F10.4°C 94% Calm Calm 1.1 mph1.8 kmh 29.96 in1014.6 mb 0.01 in0.3 mm 0.12 in3.0 mm 0.02 in0.5 mm
05:59 AM 53.1°F11.7°C 51.4°F10.8°C 94% Calm Calm -- 29.95 in1014.2 mb 0.01 in0.3 mm 0.00 in0.0 mm 0.02 in0.5 mm
06:04 AM 54.0°F12.2°C 52.3°F11.3°C 94% Calm Calm -- 29.96 in1014.6 mb 0.01 in0.3 mm 0.00 in0.0 mm 0.02 in0.5 mm
06:09 AM 54.1°F12.3°C 52.2°F11.2°C 93% Calm Calm -- 29.95 in1014.2 mb 0.01 in0.3 mm 0.00 in0.0 mm 0.02 in0.5 mm
06:14 AM 54.9°F12.7°C 52.5°F11.4°C 92% Calm Calm -- 29.96 in1014.6 mb 0.01 in0.3 mm 0.00 in0.0 mm 0.02 in0.5 mm
06:19 AM 55.6°F13.1°C 53.2°F11.8°C 92% Calm Calm -- 29.96 in1014.6 mb 0.01 in0.3 mm 0.00 in0.0 mm 0.02 in0.5 mm
06:24 AM 56.1°F13.4°C 53.6°F12.0°C 91% Calm Calm -- 29.96 in1014.6 mb 0.01 in0.3 mm 0.00 in0.0 mm 0.02 in0.5 mm
06:29 AM 56.1°F13.4°C 52.9°F11.6°C 89% Calm Calm -- 29.97 in1014.9 mb 0.01 in0.3 mm 0.00 in0.0 mm 0.02 in0.5 mm
06:34 AM 55.8°F13.2°C 52.3°F11.3°C 88% Calm Calm 1.1 mph1.8 kmh 29.96 in1014.6 mb 0.01 in0.3 mm 0.00 in0.0 mm 0.02 in0.5 mm
06:39 AM 56.5°F13.6°C 52.9°F11.6°C 88% Calm Calm -- 29.97 in1014.9 mb 0.01 in0.3 mm 0.00 in0.0 mm 0.02 in0.5 mm
06:44 AM 55.9°F13.3°C 51.3°F10.7°C 84% Calm Calm 1.1 mph1.8 kmh 29.98 in1015.2 mb 0.01 in0.3 mm 0.00 in0.0 mm 0.02 in0.5 mm
06:49 AM 55.9°F13.3°C 50.9°F10.5°C 83% 0.4 mph W0.6 kmh W 3.1 mph5.0 kmh 29.98 in1015.2 mb 0.01 in0.3 mm 0.00 in0.0 mm 0.02 in0.5 mm
06:54 AM 55.9°F13.3°C 50.5°F10.3°C 82% 0.2 mph NE0.3 kmh NE 3.1 mph5.0 kmh 29.98 in1015.2 mb 0.00 in0.0 mm 0.00 in0.0 mm 0.02 in0.5 mm
06:59 AM 55.9°F13.3°C 50.2°F10.1°C 81% 1.6 mph N2.6 kmh N 4.3 mph6.9 kmh 29.98 in1015.2 mb 0.00 in0.0 mm 0.00 in0.0 mm 0.02 in0.5 mm
07:04 AM 55.8°F13.2°C 49.6°F9.8°C 80% 1.3 mph NW2.1 kmh NW 4.3 mph6.9 kmh 29.98 in1015.2 mb 0.00 in0.0 mm 0.00 in0.0 mm 0.02 in0.5 mm
07:09 AM 55.8°F13.2°C 49.6°F9.8°C 80% 0.4 mph SW0.6 kmh SW 6.3 mph10.1 kmh 29.98 in1015.2 mb 0.00 in0.0 mm 0.00 in0.0 mm 0.02 in0.5 mm
07:14 AM 56.1°F13.4°C 50.0°F10.0°C 80% Calm Calm 1.1 mph1.8 kmh 29.99 in1015.6 mb 0.00 in0.0 mm 0.00 in0.0 mm 0.02 in0.5 mm
07:19 AM 56.1°F13.4°C 49.6°F9.8°C 79% 1.3 mph W2.1 kmh W 5.4 mph8.7 kmh 29.99 in1015.6 mb 0.00 in0.0 mm 0.00 in0.0 mm 0.02 in0.5 mm
07:24 AM 56.7°F13.7°C 50.2°F10.1°C 79% 0.9 mph WNW1.4 kmh WNW 4.3 mph6.9 kmh 29.99 in1015.6 mb 0.00 in0.0 mm 0.00 in0.0 mm 0.02 in0.5 mm
07:29 AM 57.0°F13.9°C 50.2°F10.1°C 78% 2.7 mph NW4.3 kmh NW 6.3 mph10.1 kmh 29.99 in1015.6 mb 0.00 in0.0 mm 0.00 in0.0 mm 0.02 in0.5 mm
07:34 AM 57.4°F14.1°C 50.2°F10.1°C 77% 1.8 mph NW2.9 kmh NW 4.3 mph6.9 kmh 30.00 in1015.9 mb 0.00 in0.0 mm 0.00 in0.0 mm 0.02 in0.5 mm
07:39 AM 57.4°F14.1°C 49.5°F9.7°C 75% 2.9 mph SSE4.7 kmh SSE 6.3 mph10.1 kmh 30.00 in1015.9 mb 0.00 in0.0 mm 0.00 in0.0 mm 0.02 in0.5 mm
07:44 AM 57.4°F14.1°C 49.5°F9.7°C 75% 2.0 mph SW3.2 kmh SW 6.3 mph10.1 kmh 30.00 in1015.9 mb 0.00 in0.0 mm 0.00 in0.0 mm 0.02 in0.5 mm
07:49 AM 57.0°F13.9°C 48.7°F9.3°C 74% 3.4 mph NW5.5 kmh NW 7.4 mph11.9 kmh 30.00 in1015.9 mb 0.00 in0.0 mm 0.00 in0.0 mm 0.02 in0.5 mm
07:54 AM 56.8°F13.8°C 48.9°F9.4°C 75% 0.9 mph SW1.4 kmh SW 9.6 mph15.4 kmh 30.00 in1015.9 mb 0.00 in0.0 mm 0.00 in0.0 mm 0.02 in0.5 mm
07:59 AM 56.8°F13.8°C 48.2°F9.0°C 73% 2.5 mph NW4.0 kmh NW 5.4 mph8.7 kmh 30.00 in1015.9 mb 0.00 in0.0 mm 0.00 in0.0 mm 0.02 in0.5 mm
08:04 AM 57.4°F14.1°C 48.7°F9.3°C 73% 2.0 mph NW3.2 kmh NW 6.3 mph10.1 kmh 30.00 in1015.9 mb 0.00 in0.0 mm 0.00 in0.0 mm 0.02 in0.5 mm
08:09 AM 57.7°F14.3°C 48.7°F9.3°C 72% 0.2 mph NW0.3 kmh NW 7.4 mph11.9 kmh 30.01 in1016.3 mb 0.00 in0.0 mm 0.00 in0.0 mm 0.02 in0.5 mm
08:14 AM 57.7°F14.3°C 48.0°F8.9°C 70% 3.4 mph SW5.5 kmh SW 10.5 mph16.9 kmh 30.01 in1016.3 mb 0.00 in0.0 mm 0.00 in0.0 mm 0.02 in0.5 mm
08:19 AM 57.7°F14.3°C 48.7°F9.3°C 72% 3.4 mph WNW5.5 kmh WNW 6.3 mph10.1 kmh 30.01 in1016.3 mb 0.00 in0.0 mm 0.00 in0.0 mm 0.02 in0.5 mm
08:24 AM 57.9°F14.4°C 48.2°F9.0°C 70% 6.0 mph W9.7 kmh W 10.5 mph16.9 kmh 30.01 in1016.3 mb 0.00 in0.0 mm 0.00 in0.0 mm 0.02 in0.5 mm
08:29 AM 58.5°F14.7°C 49.5°F9.7°C 72% 2.5 mph W4.0 kmh W 6.3 mph10.1 kmh 30.01 in1016.3 mb 0.00 in0.0 mm 0.00 in0.0 mm 0.02 in0.5 mm
08:34 AM 58.5°F14.7°C 48.4°F9.1°C 69% 3.6 mph NNW5.8 kmh NNW 9.6 mph15.4 kmh 30.01 in1016.3 mb 0.00 in0.0 mm 0.00 in0.0 mm 0.02 in0.5 mm
08:39 AM 58.3°F14.6°C 48.6°F9.2°C 70% 2.2 mph WNW3.5 kmh WNW 7.4 mph11.9 kmh 30.00 in1015.9 mb 0.00 in0.0 mm 0.00 in0.0 mm 0.02 in0.5 mm
08:44 AM 58.5°F14.7°C 48.0°F8.9°C 68% 3.8 mph WNW6.1 kmh WNW 8.5 mph13.7 kmh 30.01 in1016.3 mb 0.00 in0.0 mm 0.00 in0.0 mm 0.02 in0.5 mm
08:49 AM 58.6°F14.8°C 48.9°F9.4°C 70% 2.0 mph WNW3.2 kmh WNW 5.4 mph8.7 kmh 30.00 in1015.9 mb 0.00 in0.0 mm 0.00 in0.0 mm 0.02 in0.5 mm
08:54 AM 58.6°F14.8°C 47.7°F8.7°C 67% 6.3 mph NW10.1 kmh NW 10.5 mph16.9 kmh 30.00 in1015.9 mb 0.00 in0.0 mm 0.00 in0.0 mm 0.02 in0.5 mm
08:59 AM 58.5°F14.7°C 48.0°F8.9°C 68% 2.7 mph NW4.3 kmh NW 9.6 mph15.4 kmh 30.00 in1015.9 mb 0.00 in0.0 mm 0.00 in0.0 mm 0.02 in0.5 mm
09:04 AM 58.6°F14.8°C 47.7°F8.7°C 67% 4.7 mph WSW7.6 kmh WSW 8.5 mph13.7 kmh 30.00 in1015.9 mb 0.00 in0.0 mm 0.00 in0.0 mm 0.02 in0.5 mm
09:09 AM 59.4°F15.2°C 49.1°F9.5°C 69% 2.5 mph W4.0 kmh W 7.4 mph11.9 kmh 30.00 in1015.9 mb 0.00 in0.0 mm 0.00 in0.0 mm 0.02 in0.5 mm
09:14 AM 59.9°F15.5°C 48.0°F8.9°C 65% 4.5 mph NNW7.2 kmh NNW 9.6 mph15.4 kmh 30.00 in1015.9 mb 0.00 in0.0 mm 0.00 in0.0 mm 0.02 in0.5 mm
09:19 AM 60.1°F15.6°C 48.2°F9.0°C 65% 4.0 mph SW6.4 kmh SW 10.5 mph16.9 kmh 30.00 in1015.9 mb 0.00 in0.0 mm 0.00 in0.0 mm 0.02 in0.5 mm
09:24 AM 60.1°F15.6°C 48.2°F9.0°C 65% 3.4 mph WNW5.5 kmh WNW 10.5 mph16.9 kmh 30.00 in1015.9 mb 0.00 in0.0 mm 0.00 in0.0 mm 0.02 in0.5 mm
09:29 AM 60.6°F15.9°C 48.4°F9.1°C 64% 4.9 mph SW7.9 kmh SW 9.6 mph15.4 kmh 30.00 in1015.9 mb 0.00 in0.0 mm 0.00 in0.0 mm 0.02 in0.5 mm
09:34 AM 61.0°F16.1°C 49.1°F9.5°C 65% 5.6 mph NNW9.0 kmh NNW 8.5 mph13.7 kmh 30.01 in1016.3 mb 0.00 in0.0 mm 0.00 in0.0 mm 0.02 in0.5 mm
09:39 AM 60.3°F15.7°C 48.0°F8.9°C 64% 4.9 mph NW7.9 kmh NW 9.6 mph15.4 kmh 30.00 in1015.9 mb 0.00 in0.0 mm 0.00 in0.0 mm 0.02 in0.5 mm
09:44 AM 60.4°F15.8°C 49.1°F9.5°C 66% 3.4 mph NW5.5 kmh NW 8.5 mph13.7 kmh 30.00 in1015.9 mb 0.00 in0.0 mm 0.00 in0.0 mm 0.02 in0.5 mm
09:49 AM 60.8°F16.0°C 48.6°F9.2°C 64% 5.6 mph WSW9.0 kmh WSW 10.5 mph16.9 kmh 30.00 in1015.9 mb 0.00 in0.0 mm 0.00 in0.0 mm 0.02 in0.5 mm
09:54 AM 60.6°F15.9°C 48.0°F8.9°C 63% 2.7 mph WNW4.3 kmh WNW 6.3 mph10.1 kmh 30.00 in1015.9 mb 0.00 in0.0 mm 0.00 in0.0 mm 0.02 in0.5 mm
09:59 AM 61.0°F16.1°C 48.4°F9.1°C 63% 4.0 mph SW6.4 kmh SW 11.6 mph18.7 kmh 30.01 in1016.3 mb 0.00 in0.0 mm 0.00 in0.0 mm 0.02 in0.5 mm
10:04 AM 61.2°F16.2°C 49.3°F9.6°C 65% 5.1 mph WSW8.2 kmh WSW 9.6 mph15.4 kmh 30.00 in1015.9 mb 0.00 in0.0 mm 0.00 in0.0 mm 0.02 in0.5 mm
10:09 AM 61.0°F16.1°C 47.8°F8.8°C 62% 3.4 mph WSW5.5 kmh WSW 9.6 mph15.4 kmh 30.00 in1015.9 mb 0.00 in0.0 mm 0.00 in0.0 mm 0.02 in0.5 mm
10:14 AM 60.8°F16.0°C 48.2°F9.0°C 63% 3.1 mph SW5.0 kmh SW 6.3 mph10.1 kmh 30.00 in1015.9 mb 0.00 in0.0 mm 0.00 in0.0 mm 0.02 in0.5 mm
10:19 AM 61.3°F16.3°C 48.6°F9.2°C 63% 3.1 mph SW5.0 kmh SW 9.6 mph15.4 kmh 30.00 in1015.9 mb 0.00 in0.0 mm 0.00 in0.0 mm 0.02 in0.5 mm
10:24 AM 61.9°F16.6°C 48.2°F9.0°C 61% 5.4 mph NW8.7 kmh NW 10.5 mph16.9 kmh 30.00 in1015.9 mb 0.00 in0.0 mm 0.00 in0.0 mm 0.02 in0.5 mm
10:29 AM 61.3°F16.3°C 48.6°F9.2°C 63% 2.2 mph SW3.5 kmh SW 7.4 mph11.9 kmh 30.00 in1015.9 mb 0.00 in0.0 mm 0.00 in0.0 mm 0.02 in0.5 mm
10:34 AM 61.2°F16.2°C 48.9°F9.4°C 64% 4.0 mph NE6.4 kmh NE 8.5 mph13.7 kmh 30.00 in1015.9 mb 0.00 in0.0 mm 0.00 in0.0 mm 0.02 in0.5 mm
10:39 AM 61.0°F16.1°C 48.4°F9.1°C 63% 3.4 mph SW5.5 kmh SW 8.5 mph13.7 kmh 30.00 in1015.9 mb 0.00 in0.0 mm 0.00 in0.0 mm 0.02 in0.5 mm
10:44 AM 61.9°F16.6°C 48.7°F9.3°C 62% 3.4 mph W5.5 kmh W 6.3 mph10.1 kmh 30.00 in1015.9 mb 0.00 in0.0 mm 0.00 in0.0 mm 0.02 in0.5 mm
10:49 AM 62.8°F17.1°C 49.1°F9.5°C 61% 1.3 mph WSW2.1 kmh WSW 4.3 mph6.9 kmh 30.00 in1015.9 mb 0.00 in0.0 mm 0.00 in0.0 mm 0.02 in0.5 mm
10:54 AM 62.2°F16.8°C 48.2°F9.0°C 60% 4.3 mph WSW6.9 kmh WSW 8.5 mph13.7 kmh 30.00 in1015.9 mb 0.00 in0.0 mm 0.00 in0.0 mm 0.02 in0.5 mm
10:59 AM 61.9°F16.6°C 48.2°F9.0°C 61% 5.1 mph SW8.2 kmh SW 9.6 mph15.4 kmh 30.00 in1015.9 mb 0.00 in0.0 mm 0.00 in0.0 mm 0.02 in0.5 mm
11:04 AM 61.9°F16.6°C 49.1°F9.5°C 63% 4.7 mph W7.6 kmh W 12.8 mph20.6 kmh 29.99 in1015.6 mb 0.00 in0.0 mm 0.00 in0.0 mm 0.02 in0.5 mm
11:09 AM 62.1°F16.7°C 48.4°F9.1°C 61% 4.3 mph SSW6.9 kmh SSW 10.5 mph16.9 kmh 29.99 in1015.6 mb 0.00 in0.0 mm 0.00 in0.0 mm 0.02 in0.5 mm
11:14 AM 62.1°F16.7°C 49.3°F9.6°C 63% 2.5 mph SW4.0 kmh SW 5.4 mph8.7 kmh 30.00 in1015.9 mb 0.00 in0.0 mm 0.00 in0.0 mm 0.02 in0.5 mm
11:19 AM 62.2°F16.8°C 49.5°F9.7°C 63% 2.7 mph SW4.3 kmh SW 8.5 mph13.7 kmh 29.99 in1015.6 mb 0.00 in0.0 mm 0.00 in0.0 mm 0.02 in0.5 mm
11:24 AM 62.2°F16.8°C 48.6°F9.2°C 61% 6.3 mph SSW10.1 kmh SSW 11.6 mph18.7 kmh 29.99 in1015.6 mb 0.00 in0.0 mm 0.00 in0.0 mm 0.02 in0.5 mm
11:29 AM 62.4°F16.9°C 48.7°F9.3°C 61% 3.8 mph SW6.1 kmh SW 11.6 mph18.7 kmh 29.98 in1015.2 mb 0.00 in0.0 mm 0.00 in0.0 mm 0.02 in0.5 mm
11:34 AM 62.4°F16.9°C 48.4°F9.1°C 60% 6.0 mph SW9.7 kmh SW 12.8 mph20.6 kmh 29.98 in1015.2 mb 0.00 in0.0 mm 0.00 in0.0 mm 0.02 in0.5 mm
11:39 AM 62.1°F16.7°C 48.0°F8.9°C 60% 6.3 mph WNW10.1 kmh WNW 10.5 mph16.9 kmh 29.99 in1015.6 mb 0.00 in0.0 mm 0.00 in0.0 mm 0.02 in0.5 mm
11:44 AM 61.5°F16.4°C 48.7°F9.3°C 63% 6.9 mph SW11.1 kmh SW 14.8 mph23.8 kmh 29.99 in1015.6 mb 0.00 in0.0 mm 0.00 in0.0 mm 0.02 in0.5 mm
11:49 AM 61.9°F16.6°C 49.6°F9.8°C 64% 7.6 mph SW12.2 kmh SW 13.9 mph22.4 kmh 29.98 in1015.2 mb 0.00 in0.0 mm 0.00 in0.0 mm 0.02 in0.5 mm
11:54 AM 61.5°F16.4°C 48.7°F9.3°C 63% 8.9 mph SW14.3 kmh SW 14.8 mph23.8 kmh 29.98 in1015.2 mb 0.00 in0.0 mm 0.00 in0.0 mm 0.02 in0.5 mm
11:59 AM 61.9°F16.6°C 49.6°F9.8°C 64% 8.1 mph S13.0 kmh S 15.9 mph25.6 kmh 29.98 in1015.2 mb 0.00 in0.0 mm 0.00 in0.0 mm 0.02 in0.5 mm
12:04 PM 61.2°F16.2°C 48.9°F9.4°C 64% 8.5 mph S13.7 kmh S 13.9 mph22.4 kmh 29.98 in1015.2 mb 0.00 in0.0 mm 0.00 in0.0 mm 0.02 in0.5 mm
12:09 PM 61.5°F16.4°C 49.3°F9.6°C 64% 8.9 mph WSW14.3 kmh WSW 14.8 mph23.8 kmh 29.98 in1015.2 mb 0.00 in0.0 mm 0.00 in0.0 mm 0.02 in0.5 mm
12:14 PM 62.2°F16.8°C 50.4°F10.2°C 65% 6.0 mph SW9.7 kmh SW 10.5 mph16.9 kmh 29.98 in1015.2 mb 0.00 in0.0 mm 0.00 in0.0 mm 0.02 in0.5 mm
12:19 PM 62.4°F16.9°C 49.6°F9.8°C 63% 8.5 mph SW13.7 kmh SW 13.9 mph22.4 kmh 29.98 in1015.2 mb 0.00 in0.0 mm 0.00 in0.0 mm 0.02 in0.5 mm
12:24 PM 62.8°F17.1°C 50.9°F10.5°C 65% 4.0 mph S6.4 kmh S 13.9 mph22.4 kmh 29.98 in1015.2 mb 0.00 in0.0 mm 0.00 in0.0 mm 0.02 in0.5 mm
12:29 PM 62.2°F16.8°C 49.5°F9.7°C 63% 6.3 mph W10.1 kmh W 11.6 mph18.7 kmh 29.98 in1015.2 mb 0.00 in0.0 mm 0.00 in0.0 mm 0.02 in0.5 mm
12:34 PM 62.2°F16.8°C 49.5°F9.7°C 63% 6.3 mph SSW10.1 kmh SSW 9.6 mph15.4 kmh 29.98 in1015.2 mb 0.00 in0.0 mm 0.00 in0.0 mm 0.02 in0.5 mm
12:39 PM 62.4°F16.9°C 50.0°F10.0°C 64% 4.9 mph SW7.9 kmh SW 12.8 mph20.6 kmh 29.98 in1015.2 mb 0.00 in0.0 mm 0.00 in0.0 mm 0.02 in0.5 mm
12:44 PM 62.1°F16.7°C 50.2°F10.1°C 65% 6.7 mph S10.8 kmh S 12.8 mph20.6 kmh 29.98 in1015.2 mb 0.00 in0.0 mm 0.00 in0.0 mm 0.02 in0.5 mm
12:49 PM 61.7°F16.5°C 49.8°F9.9°C 65% 5.6 mph SW9.0 kmh SW 10.5 mph16.9 kmh 29.98 in1015.2 mb 0.00 in0.0 mm 0.00 in0.0 mm 0.02 in0.5 mm
12:54 PM 62.1°F16.7°C 50.9°F10.5°C 67% 5.1 mph S8.2 kmh S 12.8 mph20.6 kmh 29.98 in1015.2 mb 0.00 in0.0 mm 0.00 in0.0 mm 0.02 in0.5 mm
12:59 PM 62.2°F16.8°C 49.1°F9.5°C 62% 6.3 mph S10.1 kmh S 13.9 mph22.4 kmh 29.97 in1014.9 mb 0.00 in0.0 mm 0.00 in0.0 mm 0.02 in0.5 mm
01:04 PM 62.8°F17.1°C 47.8°F8.8°C 58% 8.9 mph W14.3 kmh W 12.8 mph20.6 kmh 29.98 in1015.2 mb 0.00 in0.0 mm 0.00 in0.0 mm 0.02 in0.5 mm
01:09 PM 62.4°F16.9°C 48.7°F9.3°C 61% 5.1 mph S8.2 kmh S 12.8 mph20.6 kmh 29.97 in1014.9 mb 0.00 in0.0 mm 0.00 in0.0 mm 0.02 in0.5 mm
01:14 PM 63.3°F17.4°C 47.3°F8.5°C 56% 5.8 mph WSW9.3 kmh WSW 12.8 mph20.6 kmh 29.97 in1014.9 mb 0.00 in0.0 mm 0.00 in0.0 mm 0.02 in0.5 mm
01:19 PM 63.3°F17.4°C 47.8°F8.8°C 57% 5.1 mph WSW8.2 kmh WSW 11.6 mph18.7 kmh 29.97 in1014.9 mb 0.00 in0.0 mm 0.00 in0.0 mm 0.02 in0.5 mm
01:24 PM 63.7°F17.6°C 47.7°F8.7°C 56% 8.1 mph WSW13.0 kmh WSW 12.8 mph20.6 kmh 29.97 in1014.9 mb 0.00 in0.0 mm 0.00 in0.0 mm 0.02 in0.5 mm
01:29 PM 63.7°F17.6°C 47.7°F8.7°C 56% 5.6 mph W9.0 kmh W 12.8 mph20.6 kmh 29.97 in1014.9 mb 0.00 in0.0 mm 0.00 in0.0 mm 0.02 in0.5 mm
01:34 PM 63.7°F17.6°C 47.3°F8.5°C 55% 6.7 mph SW10.8 kmh SW 15.9 mph25.6 kmh 29.97 in1014.9 mb 0.00 in0.0 mm 0.00 in0.0 mm 0.02 in0.5 mm
01:39 PM 63.3°F17.4°C 47.8°F8.8°C 57% 8.5 mph SW13.7 kmh SW 13.9 mph22.4 kmh 29.97 in1014.9 mb 0.00 in0.0 mm 0.00 in0.0 mm 0.02 in0.5 mm
01:44 PM 62.8°F17.1°C 45.9°F7.7°C 54% 6.9 mph S11.1 kmh S 12.8 mph20.6 kmh 29.97 in1014.9 mb 0.00 in0.0 mm 0.00 in0.0 mm 0.02 in0.5 mm
01:49 PM 63.0°F17.2°C 48.4°F9.1°C 59% 5.8 mph SW9.3 kmh SW 10.5 mph16.9 kmh 29.97 in1014.9 mb 0.00 in0.0 mm 0.00 in0.0 mm 0.02 in0.5 mm
01:54 PM 63.3°F17.4°C 48.7°F9.3°C 59% 6.9 mph SW11.1 kmh SW 13.9 mph22.4 kmh 29.97 in1014.9 mb 0.00 in0.0 mm 0.00 in0.0 mm 0.02 in0.5 mm
01:59 PM 63.0°F17.2°C 48.4°F9.1°C 59% 4.0 mph NW6.4 kmh NW 12.8 mph20.6 kmh 29.96 in1014.6 mb 0.00 in0.0 mm 0.00 in0.0 mm 0.02 in0.5 mm
02:04 PM 63.0°F17.2°C 48.9°F9.4°C 60% 6.0 mph WSW9.7 kmh WSW 17.0 mph27.4 kmh 29.96 in1014.6 mb 0.00 in0.0 mm 0.00 in0.0 mm 0.02 in0.5 mm
02:09 PM 63.3°F17.4°C 48.7°F9.3°C 59% 9.6 mph SSW15.4 kmh SSW 14.8 mph23.8 kmh 29.96 in1014.6 mb 0.00 in0.0 mm 0.00 in0.0 mm 0.02 in0.5 mm
02:14 PM 63.7°F17.6°C 48.6°F9.2°C 58% 5.8 mph SW9.3 kmh SW 10.5 mph16.9 kmh 29.96 in1014.6 mb 0.00 in0.0 mm 0.00 in0.0 mm 0.02 in0.5 mm
02:19 PM 63.5°F17.5°C 48.4°F9.1°C 58% 6.0 mph W9.7 kmh W 11.6 mph18.7 kmh 29.97 in1014.9 mb 0.00 in0.0 mm 0.00 in0.0 mm 0.02 in0.5 mm
02:24 PM 63.1°F17.3°C 48.6°F9.2°C 59% 5.4 mph WSW8.7 kmh WSW 11.6 mph18.7 kmh 29.96 in1014.6 mb 0.00 in0.0 mm 0.00 in0.0 mm 0.02 in0.5 mm
02:29 PM 63.1°F17.3°C 48.6°F9.2°C 59% 4.0 mph SW6.4 kmh SW 10.5 mph16.9 kmh 29.96 in1014.6 mb 0.00 in0.0 mm 0.00 in0.0 mm 0.02 in0.5 mm
02:34 PM 63.0°F17.2°C 48.9°F9.4°C 60% 6.7 mph SW10.8 kmh SW 10.5 mph16.9 kmh 29.96 in1014.6 mb 0.00 in0.0 mm 0.00 in0.0 mm 0.02 in0.5 mm
02:39 PM 62.2°F16.8°C 49.5°F9.7°C 63% 7.2 mph SW11.6 kmh SW 11.6 mph18.7 kmh 29.96 in1014.6 mb 0.00 in0.0 mm 0.00 in0.0 mm 0.02 in0.5 mm
02:44 PM 62.1°F16.7°C 49.3°F9.6°C 63% 4.9 mph S7.9 kmh S 12.8 mph20.6 kmh 29.96 in1014.6 mb 0.00 in0.0 mm 0.00 in0.0 mm 0.02 in0.5 mm
02:49 PM 61.5°F16.4°C 48.7°F9.3°C 63% 8.1 mph S13.0 kmh S 14.8 mph23.8 kmh 29.96 in1014.6 mb 0.00 in0.0 mm 0.00 in0.0 mm 0.02 in0.5 mm
02:54 PM 61.2°F16.2°C 49.3°F9.6°C 65% 4.7 mph SW7.6 kmh SW 11.6 mph18.7 kmh 29.96 in1014.6 mb 0.00 in0.0 mm 0.00 in0.0 mm 0.02 in0.5 mm
02:59 PM 62.2°F16.8°C 50.4°F10.2°C 65% 7.2 mph WSW11.6 kmh WSW 13.9 mph22.4 kmh 29.96 in1014.6 mb 0.00 in0.0 mm 0.00 in0.0 mm 0.02 in0.5 mm
03:04 PM 61.5°F16.4°C 49.3°F9.6°C 64% 5.8 mph SW9.3 kmh SW 19.0 mph30.6 kmh 29.96 in1014.6 mb 0.00 in0.0 mm 0.00 in0.0 mm 0.02 in0.5 mm
03:09 PM 61.3°F16.3°C 49.1°F9.5°C 64% 5.6 mph W9.0 kmh W 11.6 mph18.7 kmh 29.96 in1014.6 mb 0.00 in0.0 mm 0.00 in0.0 mm 0.02 in0.5 mm
03:14 PM 61.3°F16.3°C 49.1°F9.5°C 64% 5.1 mph SW8.2 kmh SW 12.8 mph20.6 kmh 29.96 in1014.6 mb 0.00 in0.0 mm 0.00 in0.0 mm 0.02 in0.5 mm
03:19 PM 61.5°F16.4°C 49.3°F9.6°C 64% 5.1 mph W8.2 kmh W 12.8 mph20.6 kmh 29.96 in1014.6 mb 0.00 in0.0 mm 0.00 in0.0 mm 0.02 in0.5 mm
03:24 PM 61.7°F16.5°C 49.5°F9.7°C 64% 4.0 mph SW6.4 kmh SW 12.8 mph20.6 kmh 29.96 in1014.6 mb 0.00 in0.0 mm 0.00 in0.0 mm 0.02 in0.5 mm
03:29 PM 62.1°F16.7°C 49.8°F9.9°C 64% 5.4 mph SW8.7 kmh SW 12.8 mph20.6 kmh 29.96 in1014.6 mb 0.00 in0.0 mm 0.00 in0.0 mm 0.02 in0.5 mm
03:34 PM 61.7°F16.5°C 49.5°F9.7°C 64% 5.8 mph WSW9.3 kmh WSW 10.5 mph16.9 kmh 29.96 in1014.6 mb 0.00 in0.0 mm 0.00 in0.0 mm 0.02 in0.5 mm
03:39 PM 61.9°F16.6°C 50.0°F10.0°C 65% 7.6 mph SSW12.2 kmh SSW 13.9 mph22.4 kmh 29.96 in1014.6 mb 0.00 in0.0 mm 0.00 in0.0 mm 0.02 in0.5 mm
03:44 PM 62.1°F16.7°C 49.8°F9.9°C 64% 5.6 mph SSW9.0 kmh SSW 14.8 mph23.8 kmh 29.96 in1014.6 mb 0.00 in0.0 mm 0.00 in0.0 mm 0.02 in0.5 mm
03:49 PM 61.7°F16.5°C 49.5°F9.7°C 64% 6.3 mph W10.1 kmh W 11.6 mph18.7 kmh 29.96 in1014.6 mb 0.00 in0.0 mm 0.00 in0.0 mm 0.02 in0.5 mm
03:54 PM 62.1°F16.7°C 49.3°F9.6°C 63% 5.6 mph WSW9.0 kmh WSW 11.6 mph18.7 kmh 29.96 in1014.6 mb 0.00 in0.0 mm 0.00 in0.0 mm 0.02 in0.5 mm
03:59 PM 61.7°F16.5°C 49.5°F9.7°C 64% 5.1 mph WNW8.2 kmh WNW 11.6 mph18.7 kmh 29.96 in1014.6 mb 0.00 in0.0 mm 0.00 in0.0 mm 0.02 in0.5 mm
04:04 PM 61.3°F16.3°C 49.1°F9.5°C 64% 5.1 mph SW8.2 kmh SW 10.5 mph16.9 kmh 29.96 in1014.6 mb 0.00 in0.0 mm 0.00 in0.0 mm 0.02 in0.5 mm
04:09 PM 60.8°F16.0°C 49.5°F9.7°C 66% 5.1 mph SW8.2 kmh SW 10.5 mph16.9 kmh 29.96 in1014.6 mb 0.00 in0.0 mm 0.00 in0.0 mm 0.02 in0.5 mm
04:14 PM 61.2°F16.2°C 48.9°F9.4°C 64% 4.7 mph WSW7.6 kmh WSW 10.5 mph16.9 kmh 29.96 in1014.6 mb 0.00 in0.0 mm 0.00 in0.0 mm 0.02 in0.5 mm
04:19 PM 61.5°F16.4°C 49.6°F9.8°C 65% 5.6 mph WSW9.0 kmh WSW 11.6 mph18.7 kmh 29.96 in1014.6 mb 0.00 in0.0 mm 0.00 in0.0 mm 0.02 in0.5 mm
04:24 PM 61.9°F16.6°C 49.6°F9.8°C 64% 3.4 mph W5.5 kmh W 8.5 mph13.7 kmh 29.96 in1014.6 mb 0.00 in0.0 mm 0.00 in0.0 mm 0.02 in0.5 mm
04:29 PM 61.5°F16.4°C 49.3°F9.6°C 64% 3.1 mph WSW5.0 kmh WSW 9.6 mph15.4 kmh 29.96 in1014.6 mb 0.00 in0.0 mm 0.00 in0.0 mm 0.02 in0.5 mm
04:34 PM 61.3°F16.3°C 49.1°F9.5°C 64% 4.7 mph SW7.6 kmh SW 9.6 mph15.4 kmh 29.96 in1014.6 mb 0.00 in0.0 mm 0.00 in0.0 mm 0.02 in0.5 mm
04:39 PM 61.3°F16.3°C 49.1°F9.5°C 64% 4.0 mph SW6.4 kmh SW 10.5 mph16.9 kmh 29.96 in1014.6 mb 0.00 in0.0 mm 0.00 in0.0 mm 0.02 in0.5 mm
04:44 PM 61.7°F16.5°C 49.8°F9.9°C 65% 3.1 mph W5.0 kmh W 9.6 mph15.4 kmh 29.95 in1014.2 mb 0.00 in0.0 mm 0.00 in0.0 mm 0.02 in0.5 mm
04:49 PM 62.2°F16.8°C 49.5°F9.7°C 63% 3.8 mph NW6.1 kmh NW 11.6 mph18.7 kmh 29.96 in1014.6 mb 0.00 in0.0 mm 0.00 in0.0 mm 0.02 in0.5 mm
04:54 PM 61.9°F16.6°C 48.7°F9.3°C 62% 4.0 mph WNW6.4 kmh WNW 7.4 mph11.9 kmh 29.96 in1014.6 mb 0.00 in0.0 mm 0.00 in0.0 mm 0.02 in0.5 mm
04:59 PM 62.1°F16.7°C 50.2°F10.1°C 65% 2.5 mph WSW4.0 kmh WSW 7.4 mph11.9 kmh 29.96 in1014.6 mb 0.00 in0.0 mm 0.00 in0.0 mm 0.02 in0.5 mm
05:04 PM 61.9°F16.6°C 48.7°F9.3°C 62% 3.6 mph NW5.8 kmh NW 10.5 mph16.9 kmh 29.96 in1014.6 mb 0.00 in0.0 mm 0.00 in0.0 mm 0.02 in0.5 mm
05:09 PM 61.9°F16.6°C 47.5°F8.6°C 59% 5.6 mph SW9.0 kmh SW 9.6 mph15.4 kmh 29.96 in1014.6 mb 0.00 in0.0 mm 0.00 in0.0 mm 0.02 in0.5 mm
05:14 PM 61.5°F16.4°C 47.1°F8.4°C 59% 6.7 mph W10.8 kmh W 10.5 mph16.9 kmh 29.96 in1014.6 mb 0.00 in0.0 mm 0.00 in0.0 mm 0.02 in0.5 mm
05:19 PM 61.3°F16.3°C 47.8°F8.8°C 61% 4.7 mph WSW7.6 kmh WSW 9.6 mph15.4 kmh 29.96 in1014.6 mb 0.00 in0.0 mm 0.00 in0.0 mm 0.02 in0.5 mm
05:24 PM 61.5°F16.4°C 48.7°F9.3°C 63% 3.1 mph NW5.0 kmh NW 7.4 mph11.9 kmh 29.96 in1014.6 mb 0.00 in0.0 mm 0.00 in0.0 mm 0.02 in0.5 mm
05:29 PM 61.7°F16.5°C 48.9°F9.4°C 63% 5.1 mph SW8.2 kmh SW 11.6 mph18.7 kmh 29.96 in1014.6 mb 0.00 in0.0 mm 0.00 in0.0 mm 0.02 in0.5 mm
05:34 PM 61.2°F16.2°C 48.9°F9.4°C 64% 3.4 mph SW5.5 kmh SW 7.4 mph11.9 kmh 29.96 in1014.6 mb 0.00 in0.0 mm 0.00 in0.0 mm 0.02 in0.5 mm
05:39 PM 60.8°F16.0°C 48.6°F9.2°C 64% 4.0 mph W6.4 kmh W 7.4 mph11.9 kmh 29.96 in1014.6 mb 0.00 in0.0 mm 0.00 in0.0 mm 0.02 in0.5 mm
05:44 PM 60.6°F15.9°C 49.3°F9.6°C 66% 3.8 mph W6.1 kmh W 8.5 mph13.7 kmh 29.96 in1014.6 mb 0.00 in0.0 mm 0.00 in0.0 mm 0.02 in0.5 mm
05:49 PM 60.8°F16.0°C 49.5°F9.7°C 66% 3.8 mph NW6.1 kmh NW 7.4 mph11.9 kmh 29.96 in1014.6 mb 0.00 in0.0 mm 0.00 in0.0 mm 0.02 in0.5 mm
05:54 PM 60.4°F15.8°C 49.5°F9.7°C 67% 2.5 mph SW4.0 kmh SW 8.5 mph13.7 kmh 29.96 in1014.6 mb 0.00 in0.0 mm 0.00 in0.0 mm 0.02 in0.5 mm
05:59 PM 60.1°F15.6°C 49.5°F9.7°C 68% 2.7 mph WSW4.3 kmh WSW 7.4 mph11.9 kmh 29.96 in1014.6 mb 0.00 in0.0 mm 0.00 in0.0 mm 0.02 in0.5 mm
06:04 PM 60.1°F15.6°C 49.5°F9.7°C 68% 3.1 mph WSW5.0 kmh WSW 5.4 mph8.7 kmh 29.96 in1014.6 mb 0.00 in0.0 mm 0.00 in0.0 mm 0.02 in0.5 mm
06:09 PM 60.1°F15.6°C 49.5°F9.7°C 68% 2.9 mph WNW4.7 kmh WNW 8.5 mph13.7 kmh 29.95 in1014.2 mb 0.00 in0.0 mm 0.00 in0.0 mm 0.02 in0.5 mm
06:14 PM 59.5°F15.3°C 49.3°F9.6°C 69% 1.1 mph NW1.8 kmh NW 5.4 mph8.7 kmh 29.95 in1014.2 mb 0.00 in0.0 mm 0.00 in0.0 mm 0.02 in0.5 mm
06:19 PM 59.2°F15.1°C 49.5°F9.7°C 70% 2.2 mph W3.5 kmh W 5.4 mph8.7 kmh 29.95 in1014.2 mb 0.00 in0.0 mm 0.00 in0.0 mm 0.02 in0.5 mm
06:24 PM 58.8°F14.9°C 49.8°F9.9°C 72% 0.9 mph SW1.4 kmh SW 4.3 mph6.9 kmh 29.95 in1014.2 mb 0.00 in0.0 mm 0.00 in0.0 mm 0.02 in0.5 mm
06:29 PM 58.6°F14.8°C 49.6°F9.8°C 72% 1.1 mph NW1.8 kmh NW 6.3 mph10.1 kmh 29.95 in1014.2 mb 0.00 in0.0 mm 0.00 in0.0 mm 0.02 in0.5 mm
06:34 PM 58.3°F14.6°C 49.3°F9.6°C 72% 1.8 mph NW2.9 kmh NW 6.3 mph10.1 kmh 29.95 in1014.2 mb 0.00 in0.0 mm 0.00 in0.0 mm 0.02 in0.5 mm
06:39 PM 58.3°F14.6°C 49.6°F9.8°C 73% 2.2 mph NNW3.5 kmh NNW 5.4 mph8.7 kmh 29.95 in1014.2 mb 0.00 in0.0 mm 0.00 in0.0 mm 0.02 in0.5 mm
06:44 PM 58.1°F14.5°C 49.8°F9.9°C 74% 2.2 mph WNW3.5 kmh WNW 4.3 mph6.9 kmh 29.95 in1014.2 mb 0.00 in0.0 mm 0.00 in0.0 mm 0.02 in0.5 mm
06:49 PM 57.9°F14.4°C 49.6°F9.8°C 74% 2.0 mph W3.2 kmh W 4.3 mph6.9 kmh 29.95 in1014.2 mb 0.00 in0.0 mm 0.00 in0.0 mm 0.02 in0.5 mm
06:54 PM 57.9°F14.4°C 49.6°F9.8°C 74% 1.6 mph WNW2.6 kmh WNW 3.1 mph5.0 kmh 29.95 in1014.2 mb 0.00 in0.0 mm 0.00 in0.0 mm 0.02 in0.5 mm
06:59 PM 57.9°F14.4°C 49.6°F9.8°C 74% 1.6 mph W2.6 kmh W 4.3 mph6.9 kmh 29.96 in1014.6 mb 0.00 in0.0 mm 0.00 in0.0 mm 0.02 in0.5 mm
07:04 PM 57.9°F14.4°C 50.0°F10.0°C 75% 1.3 mph NW2.1 kmh NW 4.3 mph6.9 kmh 29.96 in1014.6 mb 0.00 in0.0 mm 0.00 in0.0 mm 0.02 in0.5 mm
07:09 PM 57.9°F14.4°C 50.0°F10.0°C 75% 1.1 mph W1.8 kmh W 3.1 mph5.0 kmh 29.95 in1014.2 mb 0.00 in0.0 mm 0.00 in0.0 mm 0.02 in0.5 mm
07:14 PM 57.7°F14.3°C 49.8°F9.9°C 75% 2.2 mph W3.5 kmh W 5.4 mph8.7 kmh 29.95 in1014.2 mb 0.00 in0.0 mm 0.00 in0.0 mm 0.02 in0.5 mm
07:19 PM 57.6°F14.2°C 49.6°F9.8°C 75% 1.8 mph NNW2.9 kmh NNW 4.3 mph6.9 kmh 29.96 in1014.6 mb 0.00 in0.0 mm 0.00 in0.0 mm 0.02 in0.5 mm
07:24 PM 57.4°F14.1°C 49.5°F9.7°C 75% 2.2 mph NW3.5 kmh NW 5.4 mph8.7 kmh 29.95 in1014.2 mb 0.00 in0.0 mm 0.00 in0.0 mm 0.02 in0.5 mm
07:29 PM 57.4°F14.1°C 49.8°F9.9°C 76% 1.1 mph NW1.8 kmh NW 4.3 mph6.9 kmh 29.96 in1014.6 mb 0.00 in0.0 mm 0.00 in0.0 mm 0.02 in0.5 mm
07:34 PM 57.0°F13.9°C 49.8°F9.9°C 77% 1.1 mph NW1.8 kmh NW 4.3 mph6.9 kmh 29.95 in1014.2 mb 0.00 in0.0 mm 0.00 in0.0 mm 0.02 in0.5 mm
07:39 PM 56.8°F13.8°C 49.6°F9.8°C 77% 1.8 mph NW2.9 kmh NW 4.3 mph6.9 kmh 29.95 in1014.2 mb 0.00 in0.0 mm 0.00 in0.0 mm 0.02 in0.5 mm
07:44 PM 56.7°F13.7°C 49.5°F9.7°C 77% Calm Calm 3.1 mph5.0 kmh 29.95 in1014.2 mb 0.00 in0.0 mm 0.00 in0.0 mm 0.02 in0.5 mm
07:49 PM 56.5°F13.6°C 49.6°F9.8°C 78% 0.2 mph NW0.3 kmh NW 1.1 mph1.8 kmh 29.95 in1014.2 mb 0.00 in0.0 mm 0.00 in0.0 mm 0.02 in0.5 mm
07:54 PM 56.3°F13.5°C 49.5°F9.7°C 78% 0.2 mph NNW0.3 kmh NNW 1.1 mph1.8 kmh 29.95 in1014.2 mb 0.00 in0.0 mm 0.00 in0.0 mm 0.02 in0.5 mm
07:59 PM 56.1°F13.4°C 49.3°F9.6°C 78% Calm Calm 2.0 mph3.2 kmh 29.95 in1014.2 mb 0.00 in0.0 mm 0.00 in0.0 mm 0.02 in0.5 mm
08:04 PM 55.9°F13.3°C 49.1°F9.5°C 78% Calm Calm -- 29.95 in1014.2 mb 0.00 in0.0 mm 0.00 in0.0 mm 0.02 in0.5 mm
08:09 PM 55.8°F13.2°C 49.3°F9.6°C 79% Calm Calm -- 29.96 in1014.6 mb 0.00 in0.0 mm 0.00 in0.0 mm 0.02 in0.5 mm
08:14 PM 55.8°F13.2°C 49.3°F9.6°C 79% 0.9 mph NW1.4 kmh NW 2.0 mph3.2 kmh 29.95 in1014.2 mb 0.00 in0.0 mm 0.00 in0.0 mm 0.02 in0.5 mm
08:19 PM 55.8°F13.2°C 49.3°F9.6°C 79% 0.4 mph NW0.6 kmh NW 2.0 mph3.2 kmh 29.95 in1014.2 mb 0.00 in0.0 mm 0.00 in0.0 mm 0.02 in0.5 mm
08:24 PM 55.6°F13.1°C 49.1°F9.5°C 79% Calm Calm 2.0 mph3.2 kmh 29.95 in1014.2 mb 0.00 in0.0 mm 0.00 in0.0 mm 0.02 in0.5 mm
08:29 PM 55.4°F13.0°C 48.9°F9.4°C 79% Calm Calm -- 29.95 in1014.2 mb 0.00 in0.0 mm 0.00 in0.0 mm 0.02 in0.5 mm
08:34 PM 55.2°F12.9°C 49.1°F9.5°C 80% Calm Calm -- 29.95 in1014.2 mb 0.00 in0.0 mm 0.00 in0.0 mm 0.02 in0.5 mm
08:39 PM 54.9°F12.7°C 48.7°F9.3°C 80% Calm Calm -- 29.95 in1014.2 mb 0.00 in0.0 mm 0.00 in0.0 mm 0.02 in0.5 mm
08:44 PM 54.7°F12.6°C 48.9°F9.4°C 81% Calm Calm -- 29.95 in1014.2 mb 0.00 in0.0 mm 0.00 in0.0 mm 0.02 in0.5 mm
08:49 PM 54.5°F12.5°C 48.7°F9.3°C 81% Calm Calm -- 29.95 in1014.2 mb 0.00 in0.0 mm 0.00 in0.0 mm 0.02 in0.5 mm
08:54 PM 54.1°F12.3°C 48.4°F9.1°C 81% Calm Calm -- 29.94 in1013.9 mb 0.00 in0.0 mm 0.00 in0.0 mm 0.02 in0.5 mm
08:59 PM 54.0°F12.2°C 48.6°F9.2°C 82% Calm Calm -- 29.95 in1014.2 mb 0.00 in0.0 mm 0.00 in0.0 mm 0.02 in0.5 mm
09:04 PM 53.8°F12.1°C 48.7°F9.3°C 83% Calm Calm -- 29.94 in1013.9 mb 0.00 in0.0 mm 0.00 in0.0 mm 0.02 in0.5 mm
09:09 PM 53.8°F12.1°C 48.7°F9.3°C 83% Calm Calm -- 29.94 in1013.9 mb 0.00 in0.0 mm 0.00 in0.0 mm 0.02 in0.5 mm
09:14 PM 53.8°F12.1°C 49.1°F9.5°C 84% Calm Calm -- 29.94 in1013.9 mb 0.00 in0.0 mm 0.00 in0.0 mm 0.02 in0.5 mm
09:19 PM 53.8°F12.1°C 49.1°F9.5°C 84% Calm Calm -- 29.94 in1013.9 mb 0.00 in0.0 mm 0.00 in0.0 mm 0.02 in0.5 mm
09:24 PM 53.4°F11.9°C 48.7°F9.3°C 84% Calm Calm -- 29.94 in1013.9 mb 0.00 in0.0 mm 0.00 in0.0 mm 0.02 in0.5 mm
09:29 PM 53.4°F11.9°C 49.1°F9.5°C 85% Calm Calm -- 29.94 in1013.9 mb 0.00 in0.0 mm 0.00 in0.0 mm 0.02 in0.5 mm
09:34 PM 53.4°F11.9°C 49.1°F9.5°C 85% Calm Calm -- 29.94 in1013.9 mb 0.00 in0.0 mm 0.00 in0.0 mm 0.02 in0.5 mm
09:39 PM 53.4°F11.9°C 49.1°F9.5°C 85% Calm Calm -- 29.94 in1013.9 mb 0.00 in0.0 mm 0.00 in0.0 mm 0.02 in0.5 mm
09:44 PM 53.2°F11.8°C 48.9°F9.4°C 85% Calm Calm -- 29.94 in1013.9 mb 0.00 in0.0 mm 0.00 in0.0 mm 0.02 in0.5 mm
09:49 PM 53.4°F11.9°C 49.3°F9.6°C 86% Calm Calm -- 29.94 in1013.9 mb 0.00 in0.0 mm 0.00 in0.0 mm 0.02 in0.5 mm
09:54 PM 53.2°F11.8°C 48.9°F9.4°C 85% Calm Calm -- 29.94 in1013.9 mb 0.00 in0.0 mm 0.00 in0.0 mm 0.02 in0.5 mm
09:59 PM 53.1°F11.7°C 48.7°F9.3°C 85% Calm Calm -- 29.94 in1013.9 mb 0.00 in0.0 mm 0.00 in0.0 mm 0.02 in0.5 mm
10:04 PM 52.9°F11.6°C 48.7°F9.3°C 86% Calm Calm -- 29.94 in1013.9 mb 0.00 in0.0 mm 0.00 in0.0 mm 0.02 in0.5 mm
10:09 PM 52.9°F11.6°C 48.7°F9.3°C 86% Calm Calm -- 29.93 in1013.5 mb 0.00 in0.0 mm 0.00 in0.0 mm 0.02 in0.5 mm
10:14 PM 52.9°F11.6°C 48.7°F9.3°C 86% Calm Calm -- 29.94 in1013.9 mb 0.00 in0.0 mm 0.00 in0.0 mm 0.02 in0.5 mm
10:19 PM 52.9°F11.6°C 48.7°F9.3°C 86% Calm Calm -- 29.93 in1013.5 mb 0.00 in0.0 mm 0.00 in0.0 mm 0.02 in0.5 mm
10:24 PM 52.5°F11.4°C 48.4°F9.1°C 86% Calm Calm -- 29.93 in1013.5 mb 0.00 in0.0 mm 0.00 in0.0 mm 0.02 in0.5 mm
10:29 PM 52.5°F11.4°C 48.7°F9.3°C 87% Calm Calm -- 29.93 in1013.5 mb 0.00 in0.0 mm 0.00 in0.0 mm 0.02 in0.5 mm
10:34 PM 52.3°F11.3°C 48.6°F9.2°C 87% Calm Calm -- 29.93 in1013.5 mb 0.00 in0.0 mm 0.00 in0.0 mm 0.02 in0.5 mm
10:39 PM 52.2°F11.2°C 48.4°F9.1°C 87% Calm Calm -- 29.93 in1013.5 mb 0.00 in0.0 mm 0.00 in0.0 mm 0.02 in0.5 mm
10:44 PM 52.0°F11.1°C 48.2°F9.0°C 87% Calm Calm -- 29.93 in1013.5 mb 0.00 in0.0 mm 0.00 in0.0 mm 0.02 in0.5 mm
10:49 PM 51.8°F11.0°C 48.0°F8.9°C 87% Calm Calm -- 29.93 in1013.5 mb 0.00 in0.0 mm 0.00 in0.0 mm 0.02 in0.5 mm
10:54 PM 51.6°F10.9°C 48.2°F9.0°C 88% Calm Calm -- 29.93 in1013.5 mb 0.00 in0.0 mm 0.00 in0.0 mm 0.02 in0.5 mm
10:59 PM 51.6°F10.9°C 48.2°F9.0°C 88% Calm Calm -- 29.93 in1013.5 mb 0.00 in0.0 mm 0.00 in0.0 mm 0.02 in0.5 mm
11:04 PM 51.6°F10.9°C 48.2°F9.0°C 88% Calm Calm -- 29.93 in1013.5 mb 0.00 in0.0 mm 0.00 in0.0 mm 0.02 in0.5 mm
11:09 PM 51.4°F10.8°C 48.4°F9.1°C 89% Calm Calm -- 29.93 in1013.5 mb 0.00 in0.0 mm 0.00 in0.0 mm 0.02 in0.5 mm
11:14 PM 51.4°F10.8°C 48.4°F9.1°C 89% Calm Calm -- 29.93 in1013.5 mb 0.00 in0.0 mm 0.00 in0.0 mm 0.02 in0.5 mm
11:19 PM 51.4°F10.8°C 48.4°F9.1°C 89% Calm Calm -- 29.93 in1013.5 mb 0.00 in0.0 mm 0.00 in0.0 mm 0.02 in0.5 mm
11:24 PM 51.4°F10.8°C 48.4°F9.1°C 89% Calm Calm -- 29.93 in1013.5 mb 0.00 in0.0 mm 0.00 in0.0 mm 0.02 in0.5 mm
11:29 PM 51.4°F10.8°C 48.4°F9.1°C 89% Calm Calm -- 29.93 in1013.5 mb 0.00 in0.0 mm 0.00 in0.0 mm 0.02 in0.5 mm
11:34 PM 51.3°F10.7°C 48.2°F9.0°C 89% Calm Calm -- 29.93 in1013.5 mb 0.00 in0.0 mm 0.00 in0.0 mm 0.02 in0.5 mm
11:39 PM 51.3°F10.7°C 48.2°F9.0°C 89% Calm Calm -- 29.93 in1013.5 mb 0.00 in0.0 mm 0.00 in0.0 mm 0.02 in0.5 mm
11:44 PM 51.1°F10.6°C 48.0°F8.9°C 89% Calm Calm -- 29.93 in1013.5 mb 0.00 in0.0 mm 0.00 in0.0 mm 0.02 in0.5 mm
11:49 PM 51.3°F10.7°C 48.4°F9.1°C 90% Calm Calm -- 29.93 in1013.5 mb 0.00 in0.0 mm 0.00 in0.0 mm 0.02 in0.5 mm
11:54 PM 51.3°F10.7°C 48.4°F9.1°C 90% Calm Calm -- 29.92 in1013.2 mb 0.00 in0.0 mm 0.00 in0.0 mm 0.02 in0.5 mm
11:59 PM 51.1°F10.6°C 48.0°F8.9°C 89% Calm Calm -- 29.92 in1013.2 mb 0.00 in0.0 mm 0.00 in0.0 mm 0.02 in0.5 mm